sensor_id;sensor_type;location;lat;lon;timestamp;pressure;altitude;pressure_sealevel;temperature;humidity
41230;BME280;26964;50.428;19.218;2023-04-26T00:00:41;1012.8;;;6.6;61.1
41230;BME280;26964;50.428;19.218;2023-04-26T00:01:40;1012.8;;;6.6;61.1
41230;BME280;26964;50.428;19.218;2023-04-26T00:02:40;1012.8;;;6.6;61.1
41230;BME280;26964;50.428;19.218;2023-04-26T00:03:40;1012.8;;;6.6;61.2
41230;BME280;26964;50.428;19.218;2023-04-26T00:04:40;1012.8;;;6.6;61.2
41230;BME280;26964;50.428;19.218;2023-04-26T00:05:40;1012.8;;;6.6;61.2
41230;BME280;26964;50.428;19.218;2023-04-26T00:06:40;1012.8;;;6.6;61.2
41230;BME280;26964;50.428;19.218;2023-04-26T00:07:40;1012.9;;;6.6;61.2
41230;BME280;26964;50.428;19.218;2023-04-26T00:08:40;1012.9;;;6.6;61.2
41230;BME280;26964;50.428;19.218;2023-04-26T00:09:40;1013.0;;;6.6;61.3
41230;BME280;26964;50.428;19.218;2023-04-26T00:10:40;1012.9;;;6.6;61.3
41230;BME280;26964;50.428;19.218;2023-04-26T00:11:40;1012.8;;;6.6;61.3
41230;BME280;26964;50.428;19.218;2023-04-26T00:12:41;1013.0;;;6.6;61.3
41230;BME280;26964;50.428;19.218;2023-04-26T00:13:40;1012.9;;;6.6;61.3
41230;BME280;26964;50.428;19.218;2023-04-26T00:14:40;1012.9;;;6.6;61.3
41230;BME280;26964;50.428;19.218;2023-04-26T00:15:40;1012.9;;;6.6;61.3
41230;BME280;26964;50.428;19.218;2023-04-26T00:16:40;1012.9;;;6.6;61.4
41230;BME280;26964;50.428;19.218;2023-04-26T00:17:40;1013.0;;;6.6;61.4
41230;BME280;26964;50.428;19.218;2023-04-26T00:18:40;1013.0;;;6.6;61.4
41230;BME280;26964;50.428;19.218;2023-04-26T00:19:40;1012.9;;;6.6;61.5
41230;BME280;26964;50.428;19.218;2023-04-26T00:20:45;1012.9;;;6.6;61.4
41230;BME280;26964;50.428;19.218;2023-04-26T00:21:40;1012.9;;;6.6;61.4
41230;BME280;26964;50.428;19.218;2023-04-26T00:22:39;1013.0;;;6.6;61.5
41230;BME280;26964;50.428;19.218;2023-04-26T00:23:40;1012.9;;;6.6;61.5
41230;BME280;26964;50.428;19.218;2023-04-26T00:24:40;1012.9;;;6.6;61.5
41230;BME280;26964;50.428;19.218;2023-04-26T00:25:40;1013.0;;;6.5;61.5
41230;BME280;26964;50.428;19.218;2023-04-26T00:26:40;1013.0;;;6.5;61.5
41230;BME280;26964;50.428;19.218;2023-04-26T00:27:40;1013.0;;;6.5;61.7
41230;BME280;26964;50.428;19.218;2023-04-26T00:28:40;1013.0;;;6.5;61.7
41230;BME280;26964;50.428;19.218;2023-04-26T00:29:39;1013.0;;;6.4;61.6
41230;BME280;26964;50.428;19.218;2023-04-26T00:30:40;1013.0;;;6.4;61.6
41230;BME280;26964;50.428;19.218;2023-04-26T00:31:40;1013.0;;;6.4;61.6
41230;BME280;26964;50.428;19.218;2023-04-26T00:32:40;1013.0;;;6.4;61.7
41230;BME280;26964;50.428;19.218;2023-04-26T00:33:40;1012.9;;;6.4;61.7
41230;BME280;26964;50.428;19.218;2023-04-26T00:34:40;1013.0;;;6.4;61.7
41230;BME280;26964;50.428;19.218;2023-04-26T00:35:40;1013.0;;;6.3;61.7
41230;BME280;26964;50.428;19.218;2023-04-26T00:36:40;1013.0;;;6.3;61.7
41230;BME280;26964;50.428;19.218;2023-04-26T00:37:40;1013.0;;;6.3;61.7
41230;BME280;26964;50.428;19.218;2023-04-26T00:38:40;1013.0;;;6.3;61.7
41230;BME280;26964;50.428;19.218;2023-04-26T00:39:40;1013.0;;;6.3;61.7
41230;BME280;26964;50.428;19.218;2023-04-26T00:40:39;1013.0;;;6.2;61.7
41230;BME280;26964;50.428;19.218;2023-04-26T00:41:41;1013.0;;;6.2;61.7
41230;BME280;26964;50.428;19.218;2023-04-26T00:42:39;1013.1;;;6.2;61.8
41230;BME280;26964;50.428;19.218;2023-04-26T00:43:40;1013.1;;;6.2;61.8
41230;BME280;26964;50.428;19.218;2023-04-26T00:44:40;1013.1;;;6.2;61.8
41230;BME280;26964;50.428;19.218;2023-04-26T00:45:39;1013.1;;;6.2;61.8
41230;BME280;26964;50.428;19.218;2023-04-26T00:46:39;1013.1;;;6.2;61.9
41230;BME280;26964;50.428;19.218;2023-04-26T00:47:39;1013.0;;;6.2;61.9
41230;BME280;26964;50.428;19.218;2023-04-26T00:48:40;1013.1;;;6.2;61.9
41230;BME280;26964;50.428;19.218;2023-04-26T00:49:40;1013.0;;;6.2;61.9
41230;BME280;26964;50.428;19.218;2023-04-26T00:50:39;1013.0;;;6.1;62.0
41230;BME280;26964;50.428;19.218;2023-04-26T00:51:39;1013.0;;;6.1;62.1
41230;BME280;26964;50.428;19.218;2023-04-26T00:52:39;1013.0;;;6.1;62.0
41230;BME280;26964;50.428;19.218;2023-04-26T00:53:40;1013.0;;;6.1;62.0
41230;BME280;26964;50.428;19.218;2023-04-26T00:54:40;1013.0;;;6.1;62.1
41230;BME280;26964;50.428;19.218;2023-04-26T00:55:39;1013.0;;;6.1;62.1
41230;BME280;26964;50.428;19.218;2023-04-26T00:56:40;1013.1;;;6.1;62.1
41230;BME280;26964;50.428;19.218;2023-04-26T00:57:39;1013.0;;;6.1;62.1
41230;BME280;26964;50.428;19.218;2023-04-26T00:58:40;1013.0;;;6.1;62.1
41230;BME280;26964;50.428;19.218;2023-04-26T00:59:39;1013.0;;;6.1;62.1
41230;BME280;26964;50.428;19.218;2023-04-26T01:00:40;1013.0;;;6.0;62.2
41230;BME280;26964;50.428;19.218;2023-04-26T01:01:40;1013.1;;;6.0;62.2
41230;BME280;26964;50.428;19.218;2023-04-26T01:02:39;1013.1;;;6.0;62.1
41230;BME280;26964;50.428;19.218;2023-04-26T01:03:39;1013.1;;;6.0;62.2
41230;BME280;26964;50.428;19.218;2023-04-26T01:04:40;1013.1;;;6.0;62.1
41230;BME280;26964;50.428;19.218;2023-04-26T01:05:40;1013.1;;;5.9;62.2
41230;BME280;26964;50.428;19.218;2023-04-26T01:06:40;1013.1;;;5.9;62.2
41230;BME280;26964;50.428;19.218;2023-04-26T01:07:39;1013.1;;;5.9;62.1
41230;BME280;26964;50.428;19.218;2023-04-26T01:08:45;1013.2;;;5.9;62.3
41230;BME280;26964;50.428;19.218;2023-04-26T01:09:40;1013.1;;;5.9;62.2
41230;BME280;26964;50.428;19.218;2023-04-26T01:10:39;1013.1;;;5.8;62.2
41230;BME280;26964;50.428;19.218;2023-04-26T01:11:41;1013.1;;;5.8;62.3
41230;BME280;26964;50.428;19.218;2023-04-26T01:12:40;1013.2;;;5.8;62.2
41230;BME280;26964;50.428;19.218;2023-04-26T01:13:40;1013.1;;;5.8;62.5
41230;BME280;26964;50.428;19.218;2023-04-26T01:14:40;1013.1;;;5.8;62.3
41230;BME280;26964;50.428;19.218;2023-04-26T01:15:42;1013.2;;;5.7;62.4
41230;BME280;26964;50.428;19.218;2023-04-26T01:16:39;1013.2;;;5.7;62.6
41230;BME280;26964;50.428;19.218;2023-04-26T01:17:40;1013.2;;;5.7;62.4
41230;BME280;26964;50.428;19.218;2023-04-26T01:18:39;1013.2;;;5.7;62.5
41230;BME280;26964;50.428;19.218;2023-04-26T01:20:40;1013.2;;;5.6;62.3
41230;BME280;26964;50.428;19.218;2023-04-26T01:21:40;1013.2;;;5.6;62.6
41230;BME280;26964;50.428;19.218;2023-04-26T01:22:40;1013.2;;;5.6;62.6
41230;BME280;26964;50.428;19.218;2023-04-26T01:23:40;1013.2;;;5.5;62.4
41230;BME280;26964;50.428;19.218;2023-04-26T01:24:41;1013.2;;;5.5;62.5
41230;BME280;26964;50.428;19.218;2023-04-26T01:25:40;1013.1;;;5.5;62.5
41230;BME280;26964;50.428;19.218;2023-04-26T01:26:40;1013.1;;;5.5;62.4
41230;BME280;26964;50.428;19.218;2023-04-26T01:27:40;1013.2;;;5.4;62.5
41230;BME280;26964;50.428;19.218;2023-04-26T01:28:40;1013.2;;;5.4;62.4
41230;BME280;26964;50.428;19.218;2023-04-26T01:29:40;1013.3;;;5.4;62.5
41230;BME280;26964;50.428;19.218;2023-04-26T01:30:40;1013.3;;;5.4;62.5
41230;BME280;26964;50.428;19.218;2023-04-26T01:31:40;1013.3;;;5.3;62.6
41230;BME280;26964;50.428;19.218;2023-04-26T01:32:40;1013.2;;;5.3;62.5
41230;BME280;26964;50.428;19.218;2023-04-26T01:33:40;1013.2;;;5.3;62.5
41230;BME280;26964;50.428;19.218;2023-04-26T01:34:40;1013.3;;;5.3;62.5
41230;BME280;26964;50.428;19.218;2023-04-26T01:35:40;1013.3;;;5.2;62.6
41230;BME280;26964;50.428;19.218;2023-04-26T01:36:39;1013.3;;;5.2;62.5
41230;BME280;26964;50.428;19.218;2023-04-26T01:37:40;1013.3;;;5.2;62.6
41230;BME280;26964;50.428;19.218;2023-04-26T01:38:40;1013.3;;;5.1;62.5
41230;BME280;26964;50.428;19.218;2023-04-26T01:39:40;1013.2;;;5.1;62.6
41230;BME280;26964;50.428;19.218;2023-04-26T01:40:40;1013.3;;;5.1;62.6
41230;BME280;26964;50.428;19.218;2023-04-26T01:41:40;1013.4;;;5.1;62.6
41230;BME280;26964;50.428;19.218;2023-04-26T01:42:40;1013.3;;;5.0;62.6
41230;BME280;26964;50.428;19.218;2023-04-26T01:43:40;1013.4;;;5.0;62.6
41230;BME280;26964;50.428;19.218;2023-04-26T01:44:40;1013.3;;;5.0;62.7
41230;BME280;26964;50.428;19.218;2023-04-26T01:45:40;1013.4;;;4.9;62.6
41230;BME280;26964;50.428;19.218;2023-04-26T01:46:40;1013.3;;;4.9;62.6
41230;BME280;26964;50.428;19.218;2023-04-26T01:47:39;1013.4;;;4.9;62.7
41230;BME280;26964;50.428;19.218;2023-04-26T01:48:40;1013.4;;;4.9;62.6
41230;BME280;26964;50.428;19.218;2023-04-26T01:49:40;1013.4;;;4.9;62.7
41230;BME280;26964;50.428;19.218;2023-04-26T01:51:40;1013.4;;;4.8;62.7
41230;BME280;26964;50.428;19.218;2023-04-26T01:52:40;1013.4;;;4.8;62.7
41230;BME280;26964;50.428;19.218;2023-04-26T01:53:56;1013.5;;;4.8;62.7
41230;BME280;26964;50.428;19.218;2023-04-26T01:54:40;1013.5;;;4.8;62.7
41230;BME280;26964;50.428;19.218;2023-04-26T01:55:40;1013.4;;;4.7;62.7
41230;BME280;26964;50.428;19.218;2023-04-26T01:56:40;1013.4;;;4.7;62.8
41230;BME280;26964;50.428;19.218;2023-04-26T01:57:40;1013.4;;;4.7;62.7
41230;BME280;26964;50.428;19.218;2023-04-26T01:58:39;1013.4;;;4.7;62.8
41230;BME280;26964;50.428;19.218;2023-04-26T01:59:40;1013.4;;;4.7;62.7
41230;BME280;26964;50.428;19.218;2023-04-26T02:00:40;1013.5;;;4.6;62.8
41230;BME280;26964;50.428;19.218;2023-04-26T02:01:40;1013.5;;;4.6;62.8
41230;BME280;26964;50.428;19.218;2023-04-26T02:02:40;1013.5;;;4.6;62.7
41230;BME280;26964;50.428;19.218;2023-04-26T02:03:40;1013.5;;;4.6;62.7
41230;BME280;26964;50.428;19.218;2023-04-26T02:04:40;1013.4;;;4.5;62.8
41230;BME280;26964;50.428;19.218;2023-04-26T02:05:40;1013.5;;;4.5;62.8
41230;BME280;26964;50.428;19.218;2023-04-26T02:06:40;1013.5;;;4.5;62.8
41230;BME280;26964;50.428;19.218;2023-04-26T02:07:40;1013.5;;;4.5;62.8
41230;BME280;26964;50.428;19.218;2023-04-26T02:08:39;1013.4;;;4.5;62.8
41230;BME280;26964;50.428;19.218;2023-04-26T02:09:39;1013.5;;;4.4;62.8
41230;BME280;26964;50.428;19.218;2023-04-26T02:10:40;1013.5;;;4.4;62.8
41230;BME280;26964;50.428;19.218;2023-04-26T02:11:40;1013.5;;;4.4;62.8
41230;BME280;26964;50.428;19.218;2023-04-26T02:12:40;1013.5;;;4.4;62.8
41230;BME280;26964;50.428;19.218;2023-04-26T02:13:40;1013.6;;;4.4;62.8
41230;BME280;26964;50.428;19.218;2023-04-26T02:14:40;1013.5;;;4.4;62.8
41230;BME280;26964;50.428;19.218;2023-04-26T02:15:39;1013.5;;;4.3;62.8
41230;BME280;26964;50.428;19.218;2023-04-26T02:16:40;1013.5;;;4.3;62.9
41230;BME280;26964;50.428;19.218;2023-04-26T02:17:39;1013.5;;;4.3;62.8
41230;BME280;26964;50.428;19.218;2023-04-26T02:18:40;1013.5;;;4.3;62.8
41230;BME280;26964;50.428;19.218;2023-04-26T02:19:40;1013.5;;;4.3;62.8
41230;BME280;26964;50.428;19.218;2023-04-26T02:20:39;1013.5;;;4.3;62.9
41230;BME280;26964;50.428;19.218;2023-04-26T02:22:40;1013.4;;;4.2;62.9
41230;BME280;26964;50.428;19.218;2023-04-26T02:23:40;1013.5;;;4.2;62.9
41230;BME280;26964;50.428;19.218;2023-04-26T02:24:40;1013.4;;;4.2;62.9
41230;BME280;26964;50.428;19.218;2023-04-26T02:25:40;1013.5;;;4.2;62.9
41230;BME280;26964;50.428;19.218;2023-04-26T02:26:40;1013.4;;;4.1;62.9
41230;BME280;26964;50.428;19.218;2023-04-26T02:27:40;1013.4;;;4.1;62.9
41230;BME280;26964;50.428;19.218;2023-04-26T02:28:40;1013.4;;;4.1;62.9
41230;BME280;26964;50.428;19.218;2023-04-26T02:29:40;1013.4;;;4.1;63.0
41230;BME280;26964;50.428;19.218;2023-04-26T02:30:39;1013.5;;;4.1;63.0
41230;BME280;26964;50.428;19.218;2023-04-26T02:31:39;1013.5;;;4.1;63.0
41230;BME280;26964;50.428;19.218;2023-04-26T02:32:40;1013.4;;;4.1;63.0
41230;BME280;26964;50.428;19.218;2023-04-26T02:33:41;1013.4;;;4.0;63.0
41230;BME280;26964;50.428;19.218;2023-04-26T02:34:39;1013.4;;;4.0;63.0
41230;BME280;26964;50.428;19.218;2023-04-26T02:35:40;1013.4;;;4.0;63.0
41230;BME280;26964;50.428;19.218;2023-04-26T02:36:40;1013.5;;;4.0;63.0
41230;BME280;26964;50.428;19.218;2023-04-26T02:37:40;1013.5;;;4.0;63.0
41230;BME280;26964;50.428;19.218;2023-04-26T02:38:40;1013.4;;;4.0;63.0
41230;BME280;26964;50.428;19.218;2023-04-26T02:39:40;1013.4;;;3.9;63.0
41230;BME280;26964;50.428;19.218;2023-04-26T02:40:40;1013.4;;;3.9;63.0
41230;BME280;26964;50.428;19.218;2023-04-26T02:41:40;1013.4;;;3.9;63.0
41230;BME280;26964;50.428;19.218;2023-04-26T02:42:39;1013.5;;;3.9;63.0
41230;BME280;26964;50.428;19.218;2023-04-26T02:43:40;1013.4;;;3.9;63.1
41230;BME280;26964;50.428;19.218;2023-04-26T02:44:40;1013.4;;;3.9;63.1
41230;BME280;26964;50.428;19.218;2023-04-26T02:45:40;1013.5;;;3.8;63.1
41230;BME280;26964;50.428;19.218;2023-04-26T02:46:39;1013.4;;;3.8;63.1
41230;BME280;26964;50.428;19.218;2023-04-26T02:47:40;1013.5;;;3.8;63.1
41230;BME280;26964;50.428;19.218;2023-04-26T02:48:40;1013.5;;;3.8;63.2
41230;BME280;26964;50.428;19.218;2023-04-26T02:49:40;1013.5;;;3.8;63.1
41230;BME280;26964;50.428;19.218;2023-04-26T02:50:40;1013.4;;;3.7;63.2
41230;BME280;26964;50.428;19.218;2023-04-26T02:51:40;1013.4;;;3.7;63.2
41230;BME280;26964;50.428;19.218;2023-04-26T02:52:40;1013.4;;;3.7;63.2
41230;BME280;26964;50.428;19.218;2023-04-26T02:53:39;1013.4;;;3.7;63.3
41230;BME280;26964;50.428;19.218;2023-04-26T02:54:40;1013.4;;;3.7;63.3
41230;BME280;26964;50.428;19.218;2023-04-26T02:55:40;1013.5;;;3.7;63.3
41230;BME280;26964;50.428;19.218;2023-04-26T02:56:40;1013.4;;;3.7;63.3
41230;BME280;26964;50.428;19.218;2023-04-26T02:57:40;1013.5;;;3.7;63.3
41230;BME280;26964;50.428;19.218;2023-04-26T02:58:40;1013.5;;;3.7;63.3
41230;BME280;26964;50.428;19.218;2023-04-26T02:59:40;1013.4;;;3.7;63.3
41230;BME280;26964;50.428;19.218;2023-04-26T03:00:44;1013.5;;;3.7;63.3
41230;BME280;26964;50.428;19.218;2023-04-26T03:01:40;1013.6;;;3.7;63.4
41230;BME280;26964;50.428;19.218;2023-04-26T03:02:40;1013.6;;;3.7;63.4
41230;BME280;26964;50.428;19.218;2023-04-26T03:03:39;1013.6;;;3.6;63.4
41230;BME280;26964;50.428;19.218;2023-04-26T03:04:39;1013.6;;;3.6;63.3
41230;BME280;26964;50.428;19.218;2023-04-26T03:05:39;1013.6;;;3.6;63.4
41230;BME280;26964;50.428;19.218;2023-04-26T03:06:40;1013.6;;;3.6;63.5
41230;BME280;26964;50.428;19.218;2023-04-26T03:07:40;1013.6;;;3.6;63.4
41230;BME280;26964;50.428;19.218;2023-04-26T03:08:40;1013.6;;;3.6;63.4
41230;BME280;26964;50.428;19.218;2023-04-26T03:09:40;1013.6;;;3.6;63.4
41230;BME280;26964;50.428;19.218;2023-04-26T03:10:40;1013.6;;;3.6;63.4
41230;BME280;26964;50.428;19.218;2023-04-26T03:11:40;1013.5;;;3.6;63.4
41230;BME280;26964;50.428;19.218;2023-04-26T03:12:40;1013.6;;;3.6;63.4
41230;BME280;26964;50.428;19.218;2023-04-26T03:13:40;1013.6;;;3.5;63.4
41230;BME280;26964;50.428;19.218;2023-04-26T03:14:39;1013.6;;;3.5;63.4
41230;BME280;26964;50.428;19.218;2023-04-26T03:15:43;1013.6;;;3.5;63.4
41230;BME280;26964;50.428;19.218;2023-04-26T03:16:40;1013.6;;;3.5;63.4
41230;BME280;26964;50.428;19.218;2023-04-26T03:17:40;1013.6;;;3.5;63.4
41230;BME280;26964;50.428;19.218;2023-04-26T03:18:40;1013.6;;;3.5;63.4
41230;BME280;26964;50.428;19.218;2023-04-26T03:19:40;1013.6;;;3.4;63.4
41230;BME280;26964;50.428;19.218;2023-04-26T03:20:40;1013.6;;;3.4;63.4
41230;BME280;26964;50.428;19.218;2023-04-26T03:21:40;1013.6;;;3.4;63.5
41230;BME280;26964;50.428;19.218;2023-04-26T03:22:40;1013.7;;;3.4;63.5
41230;BME280;26964;50.428;19.218;2023-04-26T03:23:39;1013.7;;;3.4;63.5
41230;BME280;26964;50.428;19.218;2023-04-26T03:24:39;1013.7;;;3.3;63.5
41230;BME280;26964;50.428;19.218;2023-04-26T03:25:40;1013.7;;;3.3;63.5
41230;BME280;26964;50.428;19.218;2023-04-26T03:26:40;1013.7;;;3.3;63.5
41230;BME280;26964;50.428;19.218;2023-04-26T03:27:40;1013.8;;;3.3;63.5
41230;BME280;26964;50.428;19.218;2023-04-26T03:28:40;1013.8;;;3.3;63.6
41230;BME280;26964;50.428;19.218;2023-04-26T03:29:39;1013.7;;;3.3;63.6
41230;BME280;26964;50.428;19.218;2023-04-26T03:30:40;1013.8;;;3.3;63.7
41230;BME280;26964;50.428;19.218;2023-04-26T03:31:39;1013.8;;;3.3;63.6
41230;BME280;26964;50.428;19.218;2023-04-26T03:32:40;1013.8;;;3.3;63.7
41230;BME280;26964;50.428;19.218;2023-04-26T03:33:40;1013.8;;;3.2;63.7
41230;BME280;26964;50.428;19.218;2023-04-26T03:34:39;1013.8;;;3.2;63.7
41230;BME280;26964;50.428;19.218;2023-04-26T03:35:39;1013.9;;;3.2;63.7
41230;BME280;26964;50.428;19.218;2023-04-26T03:36:39;1013.9;;;3.2;63.7
41230;BME280;26964;50.428;19.218;2023-04-26T03:37:39;1013.8;;;3.2;63.7
41230;BME280;26964;50.428;19.218;2023-04-26T03:38:40;1013.8;;;3.2;63.7
41230;BME280;26964;50.428;19.218;2023-04-26T03:39:40;1013.9;;;3.2;63.7
41230;BME280;26964;50.428;19.218;2023-04-26T03:40:40;1013.9;;;3.2;63.7
41230;BME280;26964;50.428;19.218;2023-04-26T03:41:40;1013.9;;;3.1;63.7
41230;BME280;26964;50.428;19.218;2023-04-26T03:42:39;1013.9;;;3.1;63.7
41230;BME280;26964;50.428;19.218;2023-04-26T03:43:40;1013.9;;;3.1;63.7
41230;BME280;26964;50.428;19.218;2023-04-26T03:44:40;1013.9;;;3.1;63.7
41230;BME280;26964;50.428;19.218;2023-04-26T03:45:40;1013.9;;;3.1;63.7
41230;BME280;26964;50.428;19.218;2023-04-26T03:46:40;1013.9;;;3.0;63.8
41230;BME280;26964;50.428;19.218;2023-04-26T03:47:40;1013.9;;;3.0;63.8
41230;BME280;26964;50.428;19.218;2023-04-26T03:48:39;1013.9;;;3.0;63.8
41230;BME280;26964;50.428;19.218;2023-04-26T03:49:39;1013.9;;;3.0;63.8
41230;BME280;26964;50.428;19.218;2023-04-26T03:50:39;1013.9;;;3.0;63.8
41230;BME280;26964;50.428;19.218;2023-04-26T03:51:40;1013.9;;;3.0;63.9
41230;BME280;26964;50.428;19.218;2023-04-26T03:52:40;1013.8;;;3.0;63.9
41230;BME280;26964;50.428;19.218;2023-04-26T03:53:39;1013.9;;;3.0;63.9
41230;BME280;26964;50.428;19.218;2023-04-26T03:54:40;1014.0;;;3.0;64.0
41230;BME280;26964;50.428;19.218;2023-04-26T03:55:40;1013.9;;;3.0;64.0
41230;BME280;26964;50.428;19.218;2023-04-26T03:56:40;1013.9;;;2.9;64.0
41230;BME280;26964;50.428;19.218;2023-04-26T03:57:40;1013.9;;;2.9;64.0
41230;BME280;26964;50.428;19.218;2023-04-26T03:58:40;1014.0;;;2.9;64.0
41230;BME280;26964;50.428;19.218;2023-04-26T03:59:39;1014.0;;;2.9;64.0
41230;BME280;26964;50.428;19.218;2023-04-26T04:00:39;1014.1;;;2.9;64.0
41230;BME280;26964;50.428;19.218;2023-04-26T04:01:42;1014.1;;;2.9;64.1
41230;BME280;26964;50.428;19.218;2023-04-26T04:02:39;1014.1;;;2.9;64.1
41230;BME280;26964;50.428;19.218;2023-04-26T04:03:40;1014.1;;;2.9;64.2
41230;BME280;26964;50.428;19.218;2023-04-26T04:04:40;1014.1;;;2.9;64.1
41230;BME280;26964;50.428;19.218;2023-04-26T04:05:39;1014.1;;;2.9;64.2
41230;BME280;26964;50.428;19.218;2023-04-26T04:06:40;1014.1;;;2.9;64.2
41230;BME280;26964;50.428;19.218;2023-04-26T04:07:40;1014.1;;;2.9;64.1
41230;BME280;26964;50.428;19.218;2023-04-26T04:08:40;1014.1;;;2.9;64.2
41230;BME280;26964;50.428;19.218;2023-04-26T04:09:40;1014.1;;;2.9;64.2
41230;BME280;26964;50.428;19.218;2023-04-26T04:10:39;1014.1;;;2.9;64.2
41230;BME280;26964;50.428;19.218;2023-04-26T04:11:40;1014.1;;;2.9;64.2
41230;BME280;26964;50.428;19.218;2023-04-26T04:12:40;1014.1;;;2.9;64.2
41230;BME280;26964;50.428;19.218;2023-04-26T04:13:40;1014.2;;;2.9;64.2
41230;BME280;26964;50.428;19.218;2023-04-26T04:14:40;1014.2;;;2.9;64.3
41230;BME280;26964;50.428;19.218;2023-04-26T04:15:40;1014.1;;;2.9;64.3
41230;BME280;26964;50.428;19.218;2023-04-26T04:16:40;1014.2;;;2.9;64.3
41230;BME280;26964;50.428;19.218;2023-04-26T04:17:40;1014.2;;;2.9;64.3
41230;BME280;26964;50.428;19.218;2023-04-26T04:18:40;1014.2;;;2.9;64.4
41230;BME280;26964;50.428;19.218;2023-04-26T04:19:40;1014.2;;;2.9;64.4
41230;BME280;26964;50.428;19.218;2023-04-26T04:20:39;1014.2;;;2.9;64.3
41230;BME280;26964;50.428;19.218;2023-04-26T04:21:39;1014.2;;;2.9;64.4
41230;BME280;26964;50.428;19.218;2023-04-26T04:22:39;1014.2;;;2.9;64.4
41230;BME280;26964;50.428;19.218;2023-04-26T04:24:03;1014.3;;;3.0;64.5
41230;BME280;26964;50.428;19.218;2023-04-26T04:24:40;1014.3;;;3.0;64.5
41230;BME280;26964;50.428;19.218;2023-04-26T04:25:40;1014.2;;;3.0;64.6
41230;BME280;26964;50.428;19.218;2023-04-26T04:26:40;1014.2;;;3.0;64.7
41230;BME280;26964;50.428;19.218;2023-04-26T04:27:39;1014.3;;;3.0;64.5
41230;BME280;26964;50.428;19.218;2023-04-26T04:28:40;1014.3;;;3.0;64.6
41230;BME280;26964;50.428;19.218;2023-04-26T04:29:40;1014.3;;;3.0;64.5
41230;BME280;26964;50.428;19.218;2023-04-26T04:30:40;1014.4;;;3.0;64.6
41230;BME280;26964;50.428;19.218;2023-04-26T04:31:40;1014.4;;;3.0;64.6
41230;BME280;26964;50.428;19.218;2023-04-26T04:32:40;1014.4;;;3.0;64.6
41230;BME280;26964;50.428;19.218;2023-04-26T04:33:40;1014.4;;;3.0;64.6
41230;BME280;26964;50.428;19.218;2023-04-26T04:34:40;1014.4;;;3.1;64.6
41230;BME280;26964;50.428;19.218;2023-04-26T04:35:39;1014.4;;;3.1;64.7
41230;BME280;26964;50.428;19.218;2023-04-26T04:36:40;1014.5;;;3.1;64.6
41230;BME280;26964;50.428;19.218;2023-04-26T04:37:40;1014.5;;;3.1;64.6
41230;BME280;26964;50.428;19.218;2023-04-26T04:38:40;1014.5;;;3.1;64.6
41230;BME280;26964;50.428;19.218;2023-04-26T04:39:40;1014.5;;;3.1;64.7
41230;BME280;26964;50.428;19.218;2023-04-26T04:40:40;1014.5;;;3.2;64.7
41230;BME280;26964;50.428;19.218;2023-04-26T04:41:40;1014.5;;;3.2;64.7
41230;BME280;26964;50.428;19.218;2023-04-26T04:42:40;1014.6;;;3.2;64.8
41230;BME280;26964;50.428;19.218;2023-04-26T04:43:39;1014.4;;;3.2;64.7
41230;BME280;26964;50.428;19.218;2023-04-26T04:44:40;1014.6;;;3.2;64.7
41230;BME280;26964;50.428;19.218;2023-04-26T04:45:40;1014.6;;;3.2;64.7
41230;BME280;26964;50.428;19.218;2023-04-26T04:46:40;1014.6;;;3.2;64.9
41230;BME280;26964;50.428;19.218;2023-04-26T04:47:40;1014.6;;;3.3;64.8
41230;BME280;26964;50.428;19.218;2023-04-26T04:48:40;1014.6;;;3.3;64.7
41230;BME280;26964;50.428;19.218;2023-04-26T04:49:39;1014.6;;;3.3;64.8
41230;BME280;26964;50.428;19.218;2023-04-26T04:50:40;1014.7;;;3.3;64.7
41230;BME280;26964;50.428;19.218;2023-04-26T04:51:39;1014.7;;;3.3;65.2
41230;BME280;26964;50.428;19.218;2023-04-26T04:52:58;1014.6;;;3.3;64.9
41230;BME280;26964;50.428;19.218;2023-04-26T04:53:40;1014.7;;;3.3;64.8
41230;BME280;26964;50.428;19.218;2023-04-26T04:54:39;1014.7;;;3.4;64.7
41230;BME280;26964;50.428;19.218;2023-04-26T04:55:40;1014.6;;;3.4;64.8
41230;BME280;26964;50.428;19.218;2023-04-26T04:56:39;1014.6;;;3.4;64.8
41230;BME280;26964;50.428;19.218;2023-04-26T04:57:40;1014.7;;;3.4;64.9
41230;BME280;26964;50.428;19.218;2023-04-26T04:58:40;1014.7;;;3.5;64.8
41230;BME280;26964;50.428;19.218;2023-04-26T04:59:40;1014.6;;;3.5;64.8
41230;BME280;26964;50.428;19.218;2023-04-26T05:00:39;1014.7;;;3.5;64.8
41230;BME280;26964;50.428;19.218;2023-04-26T05:01:40;1014.7;;;3.5;64.9
41230;BME280;26964;50.428;19.218;2023-04-26T05:02:40;1014.8;;;3.5;64.8
41230;BME280;26964;50.428;19.218;2023-04-26T05:03:40;1014.7;;;3.5;64.7
41230;BME280;26964;50.428;19.218;2023-04-26T05:04:40;1014.7;;;3.5;64.8
41230;BME280;26964;50.428;19.218;2023-04-26T05:05:39;1014.7;;;3.6;64.8
41230;BME280;26964;50.428;19.218;2023-04-26T05:06:40;1014.7;;;3.6;65.2
41230;BME280;26964;50.428;19.218;2023-04-26T05:07:40;1014.7;;;3.6;64.9
41230;BME280;26964;50.428;19.218;2023-04-26T05:08:40;1014.8;;;3.6;64.9
41230;BME280;26964;50.428;19.218;2023-04-26T05:09:40;1014.8;;;3.6;64.9
41230;BME280;26964;50.428;19.218;2023-04-26T05:10:40;1014.7;;;3.6;64.9
41230;BME280;26964;50.428;19.218;2023-04-26T05:11:40;1014.7;;;3.7;65.1
41230;BME280;26964;50.428;19.218;2023-04-26T05:12:40;1014.8;;;3.7;64.9
41230;BME280;26964;50.428;19.218;2023-04-26T05:13:40;1014.8;;;3.7;65.1
41230;BME280;26964;50.428;19.218;2023-04-26T05:14:40;1014.7;;;3.7;64.8
41230;BME280;26964;50.428;19.218;2023-04-26T05:15:40;1014.8;;;3.7;64.9
41230;BME280;26964;50.428;19.218;2023-04-26T05:16:39;1014.7;;;3.7;64.8
41230;BME280;26964;50.428;19.218;2023-04-26T05:17:40;1014.8;;;3.7;64.9
41230;BME280;26964;50.428;19.218;2023-04-26T05:18:40;1014.7;;;3.8;64.9
41230;BME280;26964;50.428;19.218;2023-04-26T05:20:40;1014.8;;;3.8;64.9
41230;BME280;26964;50.428;19.218;2023-04-26T05:23:40;1014.9;;;3.9;65.1
41230;BME280;26964;50.428;19.218;2023-04-26T05:24:40;1014.8;;;3.9;65.0
41230;BME280;26964;50.428;19.218;2023-04-26T05:25:40;1014.9;;;3.9;64.9
41230;BME280;26964;50.428;19.218;2023-04-26T05:26:40;1014.9;;;4.0;64.9
41230;BME280;26964;50.428;19.218;2023-04-26T05:27:39;1014.9;;;4.0;64.9
41230;BME280;26964;50.428;19.218;2023-04-26T05:28:39;1015.0;;;4.0;64.8
41230;BME280;26964;50.428;19.218;2023-04-26T05:29:39;1014.9;;;4.0;64.8
41230;BME280;26964;50.428;19.218;2023-04-26T05:30:39;1014.9;;;4.0;64.7
41230;BME280;26964;50.428;19.218;2023-04-26T05:31:40;1014.9;;;4.0;64.7
41230;BME280;26964;50.428;19.218;2023-04-26T05:32:40;1014.9;;;4.1;64.7
41230;BME280;26964;50.428;19.218;2023-04-26T05:33:40;1014.9;;;4.1;64.8
41230;BME280;26964;50.428;19.218;2023-04-26T05:34:40;1014.9;;;4.1;64.7
41230;BME280;26964;50.428;19.218;2023-04-26T05:35:40;1014.9;;;4.1;64.7
41230;BME280;26964;50.428;19.218;2023-04-26T05:36:40;1015.0;;;4.2;64.7
41230;BME280;26964;50.428;19.218;2023-04-26T05:37:40;1014.9;;;4.2;64.7
41230;BME280;26964;50.428;19.218;2023-04-26T05:38:39;1014.9;;;4.2;64.7
41230;BME280;26964;50.428;19.218;2023-04-26T05:39:40;1015.0;;;4.2;64.6
41230;BME280;26964;50.428;19.218;2023-04-26T05:40:48;1014.9;;;4.2;64.6
41230;BME280;26964;50.428;19.218;2023-04-26T05:41:40;1014.9;;;4.3;64.6